createdAt,value
2017-10-26T00:00:45.182Z,99.90
2017-10-26T00:03:12.947Z,99.90
2017-10-26T00:05:40.487Z,99.90
2017-10-26T00:08:08.034Z,99.90
2017-10-26T00:10:35.801Z,99.90
2017-10-26T00:13:03.356Z,99.90
2017-10-26T00:15:30.908Z,99.90
2017-10-26T00:17:58.499Z,99.90
2017-10-26T00:20:26.056Z,99.90
2017-10-26T00:22:54.396Z,99.90
2017-10-26T00:25:22.001Z,99.90
2017-10-26T00:27:49.555Z,99.90
2017-10-26T00:30:17.104Z,99.90
2017-10-26T00:32:44.695Z,99.90
2017-10-26T00:35:12.244Z,99.90
2017-10-26T00:37:40.561Z,99.90
2017-10-26T00:40:08.337Z,99.90
2017-10-26T00:42:35.895Z,99.90
2017-10-26T00:45:04.209Z,99.90
2017-10-26T00:47:31.804Z,99.90
2017-10-26T00:50:00.114Z,99.90
2017-10-26T00:52:27.665Z,99.90
2017-10-26T00:54:55.264Z,99.90
2017-10-26T00:57:23.599Z,99.80
2017-10-26T00:59:51.320Z,99.80
2017-10-26T01:02:18.928Z,99.80
2017-10-26T01:04:46.516Z,99.90
2017-10-26T01:07:14.068Z,99.90
2017-10-26T01:09:42.432Z,99.90
2017-10-26T01:12:09.980Z,99.90
2017-10-26T01:14:37.527Z,99.90
2017-10-26T01:17:05.215Z,99.90
2017-10-26T01:19:33.533Z,99.90
2017-10-26T01:22:01.083Z,99.90
2017-10-26T01:24:28.691Z,99.90
2017-10-26T01:26:57.011Z,99.90
2017-10-26T01:29:24.576Z,99.90
2017-10-26T01:31:52.168Z,99.90
2017-10-26T01:34:19.721Z,99.90
2017-10-26T01:36:47.282Z,99.90
2017-10-26T01:39:15.067Z,99.90
2017-10-26T01:41:43.380Z,99.90
2017-10-26T01:44:10.939Z,99.90
2017-10-26T01:46:38.719Z,99.90
2017-10-26T01:49:07.040Z,99.90
2017-10-26T01:51:34.615Z,99.90
2017-10-26T01:54:02.718Z,99.90
2017-10-26T01:56:30.278Z,99.90
2017-10-26T01:58:57.832Z,99.90
2017-10-26T02:01:25.440Z,99.90
2017-10-26T02:03:52.996Z,99.90
2017-10-26T02:06:20.560Z,99.90
2017-10-26T02:08:48.144Z,99.80
2017-10-26T02:11:17.212Z,99.80
2017-10-26T02:13:44.768Z,99.90
2017-10-26T02:16:12.524Z,99.70
2017-10-26T02:18:40.840Z,99.80
2017-10-26T02:21:08.393Z,99.80
2017-10-26T02:23:36.759Z,99.80
2017-10-26T02:26:04.320Z,99.80
2017-10-26T02:31:37.603Z,99.80
2017-10-26T02:34:05.203Z,99.80
2017-10-26T02:36:32.847Z,99.90
2017-10-26T02:39:00.407Z,99.90
2017-10-26T02:41:28.885Z,99.90
2017-10-26T02:43:56.506Z,99.90
2017-10-26T02:46:25.140Z,99.90
2017-10-26T02:48:52.736Z,99.90
2017-10-26T02:51:20.293Z,99.80
2017-10-26T02:53:47.851Z,99.80
2017-10-26T02:56:16.229Z,99.80
2017-10-26T02:58:43.784Z,99.80
2017-10-26T03:01:11.344Z,99.90
2017-10-26T03:03:39.200Z,99.90
2017-10-26T03:06:06.747Z,99.90
2017-10-26T03:08:34.311Z,99.90
2017-10-26T03:11:02.027Z,99.90
2017-10-26T03:13:29.588Z,99.80
2017-10-26T03:15:57.921Z,99.80
2017-10-26T03:18:25.683Z,99.70
2017-10-26T03:20:53.252Z,99.80
2017-10-26T03:23:21.568Z,99.70
2017-10-26T03:25:49.332Z,99.70
2017-10-26T03:28:16.895Z,99.80
2017-10-26T03:30:45.213Z,99.80
2017-10-26T03:33:12.821Z,99.80
2017-10-26T03:35:40.376Z,99.80
2017-10-26T03:38:07.935Z,99.80
2017-10-26T03:40:35.688Z,99.80
2017-10-26T03:43:03.257Z,99.80
2017-10-26T03:45:30.821Z,99.80
2017-10-26T03:47:58.424Z,99.80
2017-10-26T03:50:25.978Z,99.80
2017-10-26T03:52:55.046Z,99.90
2017-10-26T03:55:23.390Z,99.90
2017-10-26T03:57:50.944Z,99.90
2017-10-26T04:00:18.497Z,99.80
2017-10-26T04:02:47.004Z,99.90
2017-10-26T04:05:14.558Z,99.80
2017-10-26T04:07:42.119Z,99.80
2017-10-26T04:10:09.720Z,99.70
2017-10-26T04:12:37.279Z,99.80
2017-10-26T04:15:04.840Z,99.70
2017-10-26T04:17:32.440Z,99.70
2017-10-26T04:20:00.759Z,99.50
2017-10-26T04:22:28.319Z,99.50
2017-10-26T04:24:56.031Z,99.60
2017-10-26T04:27:23.592Z,99.60
2017-10-26T04:29:51.152Z,99.70
2017-10-26T04:32:18.756Z,99.70
2017-10-26T04:34:46.313Z,99.60
2017-10-26T04:37:13.872Z,99.60
2017-10-26T04:39:42.252Z,99.70
2017-10-26T04:42:09.805Z,99.60
2017-10-26T04:44:37.363Z,99.50
2017-10-26T04:47:05.154Z,99.60
2017-10-26T04:49:32.725Z,99.70
2017-10-26T04:52:00.283Z,99.90
2017-10-26T04:54:28.025Z,99.70
2017-10-26T04:56:55.579Z,99.50
2017-10-26T04:59:23.137Z,99.60
2017-10-26T05:01:50.923Z,99.50
2017-10-26T05:04:18.475Z,99.50
2017-10-26T05:06:46.801Z,99.60
2017-10-26T05:09:14.576Z,99.90
2017-10-26T05:11:42.127Z,99.60
2017-10-26T05:14:10.440Z,99.50
2017-10-26T05:16:38.030Z,99.50
2017-10-26T05:19:06.352Z,99.60
2017-10-26T05:21:33.904Z,99.50
2017-10-26T05:24:01.683Z,99.50
2017-10-26T05:26:30.005Z,99.40
2017-10-26T05:28:58.005Z,99.40
2017-10-26T05:31:26.386Z,99.40
2017-10-26T05:33:53.947Z,99.40
2017-10-26T05:36:22.271Z,99.50
2017-10-26T05:38:49.875Z,99.50
2017-10-26T05:41:17.441Z,99.40
2017-10-26T05:43:44.992Z,99.30
2017-10-26T05:46:12.767Z,99.40
2017-10-26T05:48:40.336Z,99.50
2017-10-26T05:51:07.887Z,99.60
2017-10-26T05:53:35.596Z,99.50
2017-10-26T05:56:03.164Z,99.50
2017-10-26T05:58:31.487Z,99.40
2017-10-26T06:00:59.095Z,99.40
2017-10-26T06:03:26.647Z,99.30
2017-10-26T06:05:54.204Z,99.40
2017-10-26T06:08:21.805Z,99.40
2017-10-26T06:10:50.125Z,99.30
2017-10-26T06:13:17.676Z,99.30
2017-10-26T06:15:45.365Z,99.30
2017-10-26T06:18:12.988Z,99.30
2017-10-26T06:20:41.303Z,99.40
2017-10-26T06:23:09.095Z,99.40
2017-10-26T06:25:37.428Z,99.30
2017-10-26T06:28:04.980Z,99.30
2017-10-26T06:30:33.363Z,99.60
2017-10-26T06:33:01.688Z,99.40
2017-10-26T06:35:29.243Z,99.30
2017-10-26T06:37:56.844Z,99.30
2017-10-26T06:40:24.407Z,99.40
2017-10-26T06:42:51.964Z,99.30
2017-10-26T06:45:19.572Z,99.30
2017-10-26T06:47:47.136Z,99.30
2017-10-26T06:50:14.687Z,99.30
2017-10-26T06:52:42.296Z,99.20
2017-10-26T06:55:09.851Z,99.00
2017-10-26T06:57:37.411Z,99.00
2017-10-26T07:00:05.020Z,98.90
2017-10-26T07:02:32.594Z,98.90
2017-10-26T07:05:00.156Z,98.90
2017-10-26T07:07:27.860Z,98.90
2017-10-26T07:09:55.415Z,98.80
2017-10-26T07:12:22.967Z,98.70
2017-10-26T07:14:50.772Z,98.80
2017-10-26T07:17:19.102Z,98.70
2017-10-26T07:19:46.655Z,98.60
2017-10-26T07:22:14.416Z,98.70
2017-10-26T07:24:42.744Z,98.50
2017-10-26T07:27:10.299Z,98.50
2017-10-26T07:29:38.063Z,98.60
2017-10-26T07:32:05.627Z,98.50
2017-10-26T07:34:33.952Z,98.30
2017-10-26T07:37:02.511Z,98.70
2017-10-26T07:39:30.069Z,98.40
2017-10-26T07:41:58.396Z,98.10
2017-10-26T07:44:26.003Z,98.10
2017-10-26T07:46:53.575Z,98.10
2017-10-26T07:49:21.135Z,98.10
2017-10-26T07:51:48.740Z,98.10
2017-10-26T07:54:16.304Z,98.10
2017-10-26T07:56:43.854Z,98.00
2017-10-26T07:59:11.626Z,97.90
2017-10-26T08:01:39.191Z,98.00
2017-10-26T08:04:06.746Z,98.00
2017-10-26T08:06:34.560Z,98.00
2017-10-26T08:09:02.124Z,97.90
2017-10-26T08:11:30.915Z,97.90
2017-10-26T08:13:58.520Z,97.90
2017-10-26T08:16:26.081Z,98.00
2017-10-26T08:18:54.523Z,98.20
2017-10-26T08:21:23.069Z,98.20
2017-10-26T08:23:51.476Z,98.30
2017-10-26T08:26:19.087Z,98.30
2017-10-26T08:28:46.712Z,98.20
2017-10-26T08:31:14.270Z,98.20
2017-10-26T08:33:41.875Z,98.40
2017-10-26T08:36:10.254Z,98.70
2017-10-26T08:38:38.579Z,98.40
2017-10-26T08:41:06.236Z,98.40
2017-10-26T08:43:34.116Z,98.50
2017-10-26T08:46:01.692Z,98.50
2017-10-26T08:48:29.253Z,98.40
2017-10-26T08:50:56.860Z,98.40
2017-10-26T08:53:24.427Z,98.60
2017-10-26T08:55:52.127Z,98.60
2017-10-26T08:58:20.511Z,98.50
2017-10-26T09:00:48.082Z,98.50
2017-10-26T09:03:15.656Z,98.50
2017-10-26T09:05:43.355Z,98.50
2017-10-26T09:08:10.910Z,98.50
2017-10-26T09:10:38.471Z,98.60
2017-10-26T09:13:06.095Z,98.70
2017-10-26T09:15:33.652Z,98.80
2017-10-26T09:18:01.223Z,98.90
2017-10-26T09:20:28.832Z,99.00
2017-10-26T09:22:56.389Z,99.00
2017-10-26T09:25:23.971Z,98.90
2017-10-26T09:27:52.415Z,99.00
2017-10-26T09:30:19.975Z,99.00
2017-10-26T09:32:48.300Z,99.20
2017-10-26T09:35:15.907Z,99.10
2017-10-26T09:37:43.488Z,99.30
2017-10-26T09:40:11.073Z,99.30
2017-10-26T09:42:38.701Z,99.20
2017-10-26T09:45:06.272Z,99.20
2017-10-26T09:47:34.005Z,99.00
2017-10-26T09:50:01.784Z,99.00
2017-10-26T09:52:29.350Z,99.30
2017-10-26T09:54:56.927Z,99.40
2017-10-26T09:57:24.796Z,99.00
2017-10-26T09:59:52.395Z,99.00
2017-10-26T10:02:19.960Z,99.00
2017-10-26T10:04:47.563Z,99.00
2017-10-26T10:07:15.884Z,98.90
2017-10-26T10:09:43.444Z,98.80
2017-10-26T10:12:11.278Z,98.70
2017-10-26T10:14:38.852Z,98.90
2017-10-26T10:17:07.181Z,99.10
2017-10-26T10:19:34.791Z,99.10
2017-10-26T10:22:02.356Z,98.90
2017-10-26T10:24:29.921Z,98.90
2017-10-26T10:26:57.536Z,98.80
2017-10-26T10:29:25.124Z,98.70
2017-10-26T10:31:52.692Z,98.40
2017-10-26T10:34:21.194Z,97.80
2017-10-26T10:36:49.355Z,97.80
2017-10-26T10:39:16.956Z,97.20
2017-10-26T10:41:44.591Z,96.90
2017-10-26T10:44:12.180Z,96.80
2017-10-26T10:46:39.762Z,96.50
2017-10-26T10:49:08.135Z,95.90
2017-10-26T10:51:36.464Z,96.00
2017-10-26T10:54:04.032Z,96.00
2017-10-26T10:56:32.544Z,95.70
2017-10-26T10:59:05.835Z,95.70
2017-10-26T11:01:33.615Z,95.60
2017-10-26T11:04:01.181Z,95.20
2017-10-26T11:06:28.747Z,95.10
2017-10-26T11:08:56.357Z,94.90
2017-10-26T11:11:24.681Z,95.10
2017-10-26T11:13:52.240Z,95.10
2017-10-26T11:16:19.848Z,94.80
2017-10-26T11:18:47.416Z,94.80
2017-10-26T11:21:14.984Z,94.70
2017-10-26T11:23:42.739Z,94.70
2017-10-26T11:26:11.086Z,94.20
2017-10-26T11:28:38.651Z,93.90
2017-10-26T11:31:07.204Z,93.40
2017-10-26T11:33:34.768Z,93.30
2017-10-26T11:36:02.331Z,93.00
2017-10-26T11:38:29.944Z,92.50
2017-10-26T11:40:57.514Z,92.20
2017-10-26T11:43:25.075Z,92.20
2017-10-26T11:45:52.822Z,92.10
2017-10-26T11:48:20.380Z,92.40
2017-10-26T11:50:47.952Z,91.80
2017-10-26T11:53:15.550Z,91.30
2017-10-26T11:55:43.118Z,91.30
2017-10-26T11:58:11.444Z,91.20
2017-10-26T12:00:39.057Z,91.10
2017-10-26T12:03:06.627Z,90.90
2017-10-26T12:05:34.202Z,90.30
2017-10-26T12:08:02.597Z,89.80
2017-10-26T12:10:30.159Z,89.90
2017-10-26T12:12:57.725Z,90.10
2017-10-26T12:15:25.501Z,88.90
2017-10-26T12:17:53.056Z,88.40
2017-10-26T12:20:21.384Z,88.50
2017-10-26T12:22:49.159Z,88.40
2017-10-26T12:25:17.480Z,88.70
2017-10-26T12:27:45.043Z,88.70
2017-10-26T12:30:12.808Z,89.50
2017-10-26T12:32:41.135Z,89.10
2017-10-26T12:35:08.692Z,89.10
2017-10-26T12:37:37.071Z,88.80
2017-10-26T12:40:04.623Z,88.80
2017-10-26T12:42:32.189Z,88.50
2017-10-26T12:44:59.812Z,88.60
2017-10-26T12:47:27.373Z,89.20
2017-10-26T12:49:54.947Z,89.30
2017-10-26T12:52:22.804Z,89.60
2017-10-26T12:54:51.145Z,89.50
2017-10-26T12:57:18.712Z,89.50
2017-10-26T12:59:47.072Z,89.60
2017-10-26T13:02:14.671Z,89.60
2017-10-26T13:04:42.227Z,89.70
2017-10-26T13:07:09.855Z,89.90
2017-10-26T13:09:37.427Z,89.80
2017-10-26T13:12:04.987Z,90.00
2017-10-26T13:14:34.100Z,90.30
2017-10-26T13:17:01.712Z,90.30
2017-10-26T13:19:29.272Z,90.30
2017-10-26T13:21:56.896Z,90.40
2017-10-26T13:24:24.456Z,90.20
2017-10-26T13:26:52.783Z,90.20
2017-10-26T13:29:20.392Z,90.20
2017-10-26T13:31:47.960Z,90.30
2017-10-26T13:34:15.513Z,90.10
2017-10-26T13:36:43.884Z,90.30
2017-10-26T13:39:11.444Z,90.30
2017-10-26T13:41:39.009Z,90.30
2017-10-26T13:44:06.640Z,90.50
2017-10-26T13:46:34.201Z,90.80
2017-10-26T13:49:01.756Z,90.70
2017-10-26T13:51:29.515Z,90.70
2017-10-26T13:53:57.078Z,90.90
2017-10-26T13:56:25.399Z,91.20
2017-10-26T13:58:53.020Z,91.20
2017-10-26T14:01:20.600Z,91.00
2017-10-26T14:03:48.151Z,91.20
2017-10-26T14:06:15.899Z,91.20
2017-10-26T14:08:43.464Z,91.30
2017-10-26T14:11:11.795Z,91.40
2017-10-26T14:13:39.499Z,91.40
2017-10-26T14:16:07.057Z,91.20
2017-10-26T14:18:34.621Z,91.20
2017-10-26T14:21:02.392Z,91.40
2017-10-26T14:23:29.945Z,91.60
2017-10-26T14:25:58.271Z,91.80
2017-10-26T14:28:25.960Z,91.70
2017-10-26T14:30:54.294Z,92.00
2017-10-26T14:33:21.859Z,91.90
2017-10-26T14:35:49.471Z,92.00
2017-10-26T14:38:17.028Z,92.20
2017-10-26T14:40:44.587Z,92.10
2017-10-26T14:43:12.195Z,92.10
2017-10-26T14:45:39.761Z,92.10
2017-10-26T14:48:07.312Z,92.10
2017-10-26T14:50:35.099Z,92.00
2017-10-26T14:53:02.651Z,92.00
2017-10-26T14:55:30.981Z,92.10
2017-10-26T14:57:58.684Z,92.10
2017-10-26T15:00:26.243Z,91.90
2017-10-26T15:02:53.808Z,91.80
2017-10-26T15:05:21.428Z,91.90
2017-10-26T15:07:48.983Z,92.00
2017-10-26T15:10:16.549Z,92.30
2017-10-26T15:12:45.073Z,92.10
2017-10-26T15:15:12.640Z,92.20
2017-10-26T15:17:40.200Z,92.30
2017-10-26T15:20:07.973Z,92.40
2017-10-26T15:22:35.544Z,92.40
2017-10-26T15:25:03.109Z,92.20
2017-10-26T15:27:30.715Z,92.40
2017-10-26T15:29:59.052Z,92.50
2017-10-26T15:32:26.608Z,92.50
2017-10-26T15:34:54.342Z,92.60
2017-10-26T15:37:22.675Z,92.60
2017-10-26T15:39:50.223Z,92.50
2017-10-26T15:42:18.605Z,92.70
2017-10-26T15:44:46.204Z,92.80
2017-10-26T15:47:13.788Z,92.90
2017-10-26T15:49:41.488Z,92.90
2017-10-26T15:52:09.047Z,93.10
2017-10-26T15:54:36.612Z,93.10
2017-10-26T15:57:04.471Z,93.20
2017-10-26T15:59:32.040Z,93.40
2017-10-26T16:02:00.180Z,93.40
2017-10-26T16:04:28.559Z,93.60
2017-10-26T16:06:56.118Z,93.60
2017-10-26T16:09:23.681Z,93.70
2017-10-26T16:11:51.287Z,93.80
2017-10-26T16:14:18.855Z,93.90
2017-10-26T16:16:46.424Z,94.00
2017-10-26T16:19:14.036Z,94.00
2017-10-26T16:21:41.706Z,94.20
2017-10-26T16:24:09.267Z,94.20
2017-10-26T16:26:37.042Z,94.30
2017-10-26T16:29:05.369Z,94.30
2017-10-26T16:31:32.928Z,94.30
2017-10-26T16:34:00.536Z,94.50
2017-10-26T16:36:28.864Z,94.50
2017-10-26T16:38:56.420Z,94.50
2017-10-26T16:41:24.023Z,94.60
2017-10-26T16:43:51.586Z,94.50
2017-10-26T16:46:19.152Z,94.50
2017-10-26T16:48:46.760Z,94.60
2017-10-26T16:51:14.320Z,94.70
2017-10-26T16:53:41.876Z,94.60
2017-10-26T16:56:09.656Z,94.70
2017-10-26T16:58:37.983Z,94.70
2017-10-26T17:01:05.539Z,94.70
2017-10-26T17:03:33.956Z,94.90
2017-10-26T17:06:01.528Z,94.90
2017-10-26T17:08:29.086Z,94.90
2017-10-26T17:10:56.693Z,94.90
2017-10-26T17:13:24.256Z,94.90
2017-10-26T17:15:51.816Z,94.90
2017-10-26T17:18:19.516Z,95.00
2017-10-26T17:20:47.081Z,95.00
2017-10-26T17:23:14.636Z,94.80
2017-10-26T17:25:42.241Z,94.90
2017-10-26T17:28:09.806Z,94.90
2017-10-26T17:30:37.370Z,94.90
2017-10-26T17:33:04.979Z,94.80
2017-10-26T17:35:32.552Z,94.80
2017-10-26T17:38:00.884Z,94.70
2017-10-26T17:40:28.599Z,94.70
2017-10-26T17:42:56.162Z,94.60
2017-10-26T17:45:23.732Z,94.70
2017-10-26T17:47:51.491Z,94.70
2017-10-26T17:50:19.056Z,94.70
2017-10-26T17:52:47.384Z,94.70
2017-10-26T17:55:14.990Z,94.70
2017-10-26T17:57:42.547Z,94.70
2017-10-26T18:00:10.130Z,94.80
2017-10-26T18:02:37.888Z,94.80
2017-10-26T18:05:06.204Z,94.80
2017-10-26T18:07:33.761Z,94.70
2017-10-26T18:10:01.370Z,94.80
2017-10-26T18:12:28.932Z,94.90
2017-10-26T18:14:56.491Z,94.70
2017-10-26T18:17:24.155Z,94.60
2017-10-26T18:19:51.713Z,94.60
2017-10-26T18:22:20.041Z,94.60
2017-10-26T18:24:47.821Z,94.60
2017-10-26T18:27:16.144Z,94.80
2017-10-26T18:29:43.715Z,94.80
2017-10-26T18:32:11.332Z,94.90
2017-10-26T18:34:39.055Z,94.90
2017-10-26T18:37:06.612Z,95.00
2017-10-26T18:39:34.238Z,94.80
2017-10-26T18:42:01.795Z,94.80
2017-10-26T18:44:29.353Z,95.00
2017-10-26T18:46:56.957Z,95.00
2017-10-26T18:49:24.517Z,95.40
2017-10-26T18:51:52.869Z,95.30
2017-10-26T18:54:20.645Z,95.30
2017-10-26T18:56:48.203Z,95.30
2017-10-26T18:59:17.447Z,95.30
2017-10-26T19:01:45.056Z,95.30
2017-10-26T19:04:12.623Z,95.50
2017-10-26T19:06:40.180Z,95.50
2017-10-26T19:09:07.850Z,95.60
2017-10-26T19:11:35.990Z,95.50
2017-10-26T19:14:03.608Z,95.50
2017-10-26T19:16:31.234Z,95.70
2017-10-26T19:18:58.804Z,95.70
2017-10-26T19:21:26.355Z,95.70
2017-10-26T19:23:53.956Z,95.80
2017-10-26T19:26:22.279Z,95.70
2017-10-26T19:28:51.349Z,95.70
2017-10-26T19:31:18.967Z,95.70
2017-10-26T19:33:46.536Z,95.80
2017-10-26T19:36:14.860Z,95.80
2017-10-26T19:38:42.574Z,95.80
2017-10-26T19:41:10.142Z,96.20
2017-10-26T19:43:37.720Z,95.90
2017-10-26T19:46:06.107Z,95.90
2017-10-26T19:48:33.671Z,95.90
2017-10-26T19:51:01.236Z,95.90
2017-10-26T19:53:28.839Z,95.90
2017-10-26T19:55:56.408Z,95.90
2017-10-26T19:58:23.970Z,95.90
2017-10-26T20:00:51.593Z,95.90
2017-10-26T20:03:19.177Z,95.80
2017-10-26T20:05:46.744Z,95.80
2017-10-26T20:08:15.245Z,95.70
2017-10-26T20:10:42.816Z,95.60
2017-10-26T20:13:10.380Z,95.70
2017-10-26T20:15:38.139Z,95.60
2017-10-26T20:18:06.475Z,95.60
2017-10-26T20:20:34.049Z,95.60
2017-10-26T20:23:01.675Z,95.50
2017-10-26T20:25:29.240Z,95.50
2017-10-26T20:27:57.563Z,95.50
2017-10-26T20:30:25.337Z,95.40
2017-10-26T20:32:52.893Z,95.30
2017-10-26T20:35:20.448Z,95.40
2017-10-26T20:37:48.827Z,95.40
2017-10-26T20:40:16.386Z,95.40
2017-10-26T20:42:43.949Z,95.40
2017-10-26T20:45:11.747Z,95.40
2017-10-26T20:47:40.345Z,95.50
2017-10-26T20:50:13.579Z,95.50
2017-10-26T20:52:47.244Z,95.60
2017-10-26T20:55:20.875Z,95.70
2017-10-26T20:57:54.156Z,95.70
2017-10-26T21:00:27.512Z,95.80
2017-10-26T21:03:01.437Z,96.00
2017-10-26T21:05:34.635Z,95.90
2017-10-26T21:08:06.087Z,96.00
2017-10-26T21:10:39.420Z,96.10
2017-10-26T21:13:12.725Z,96.10
2017-10-26T21:15:40.345Z,96.30
2017-10-26T21:18:07.905Z,96.10
2017-10-26T21:20:35.468Z,96.00
2017-10-26T21:23:03.160Z,96.10
2017-10-26T21:25:31.484Z,96.00
2017-10-26T21:27:59.044Z,96.00
2017-10-26T21:30:28.144Z,96.10
2017-10-26T21:32:56.473Z,96.00
2017-10-26T21:35:24.035Z,96.00
2017-10-26T21:37:52.395Z,96.10
2017-10-26T21:40:20.954Z,96.30
2017-10-26T21:42:48.512Z,96.00
2017-10-26T21:45:16.894Z,96.00
2017-10-26T21:47:44.476Z,96.00
2017-10-26T21:50:12.035Z,96.00
2017-10-26T21:52:39.639Z,96.10
2017-10-26T21:55:07.204Z,96.20
2017-10-26T21:57:34.756Z,96.30
2017-10-26T22:00:02.368Z,96.20
2017-10-26T22:02:29.928Z,96.20
2017-10-26T22:04:57.486Z,96.10
2017-10-26T22:07:25.107Z,96.00
2017-10-26T22:09:52.675Z,96.00
2017-10-26T22:12:20.232Z,96.00
2017-10-26T22:14:47.857Z,95.90
2017-10-26T22:17:15.411Z,96.00
2017-10-26T22:19:43.016Z,96.00
2017-10-26T22:22:10.628Z,96.10
2017-10-26T22:24:38.951Z,96.10
2017-10-26T22:27:06.507Z,96.10
2017-10-26T22:29:34.105Z,96.20
2017-10-26T22:32:01.659Z,96.10
2017-10-26T22:34:29.229Z,96.30
2017-10-26T22:36:56.830Z,96.40
2017-10-26T22:39:24.384Z,96.60
2017-10-26T22:41:51.936Z,96.70
2017-10-26T22:44:19.719Z,96.90
2017-10-26T22:46:48.041Z,97.30
2017-10-26T22:49:15.596Z,97.20
2017-10-26T22:51:43.920Z,97.40
2017-10-26T22:54:11.491Z,97.60
2017-10-26T22:56:39.043Z,97.60
2017-10-26T22:59:07.061Z,97.80
2017-10-26T23:01:34.616Z,98.00
2017-10-26T23:04:02.171Z,98.10
2017-10-26T23:06:30.060Z,98.10
2017-10-26T23:08:58.392Z,97.10
2017-10-26T23:11:25.948Z,97.10
2017-10-26T23:13:53.551Z,96.90
2017-10-26T23:16:21.104Z,97.00
2017-10-26T23:18:48.660Z,97.10
2017-10-26T23:21:16.272Z,97.00
2017-10-26T23:23:43.837Z,97.10
2017-10-26T23:26:11.388Z,97.30
2017-10-26T23:28:39.148Z,97.50
2017-10-26T23:31:06.712Z,97.50
2017-10-26T23:33:34.280Z,97.70
2017-10-26T23:36:02.072Z,97.60
2017-10-26T23:38:29.626Z,97.50
2017-10-26T23:40:57.943Z,96.30
2017-10-26T23:43:25.543Z,96.30
2017-10-26T23:45:53.097Z,96.00
2017-10-26T23:48:20.646Z,96.20
2017-10-26T23:50:48.260Z,96.10
2017-10-26T23:53:16.586Z,96.50
2017-10-26T23:55:44.143Z,96.40
2017-10-26T23:58:11.744Z,96.40
